Time;durP1;ratioP1;P1;durP2;ratioP2;P2;SDS_P1;SDS_P2;PMS_P1;PMS_P2;Temp;Humidity;BMP_temperature;BMP_pressure;BME280_temperature;BME280_humidity;BME280_pressure;Samples;Min_cycle;Max_cycle;Signal;HPM_P1;HPM_P2
2023/12/06 00:00:24;;;;;;;27.90;17.60;;;2.80;99.90;;;;;;5079739;28;20017;-78
2023/12/06 00:02:50;;;;;;;26.80;17.58;;;2.00;99.90;;;;;;5045967;28;20027;-78
2023/12/06 00:05:15;;;;;;;27.30;17.13;;;0.80;99.90;;;;;;5062617;28;20040;-78
2023/12/06 00:07:41;;;;;;;27.90;17.80;;;0.80;99.90;;;;;;5045991;28;20013;-78
2023/12/06 00:10:07;;;;;;;28.25;18.00;;;0.80;99.90;;;;;;5079243;28;20061;-78
2023/12/06 00:12:33;;;;;;;27.70;17.95;;;0.80;99.90;;;;;;5044676;28;20290;-78
2023/12/06 00:14:59;;;;;;;27.75;18.15;;;0.80;99.90;;;;;;5057650;28;20036;-78
2023/12/06 00:17:24;;;;;;;29.05;17.10;;;1.60;99.90;;;;;;5060084;28;20020;-78
2023/12/06 00:19:50;;;;;;;28.88;18.80;;;2.60;99.90;;;;;;5034953;28;20055;-78
2023/12/06 00:22:17;;;;;;;28.90;17.67;;;2.60;99.90;;;;;;5020470;28;20282;-78
2023/12/06 00:24:43;;;;;;;26.25;16.92;;;0.80;99.90;;;;;;5040716;28;20075;-78
2023/12/06 00:27:08;;;;;;;27.23;17.95;;;0.80;99.90;;;;;;5013360;28;20033;-78
2023/12/06 00:29:34;;;;;;;28.90;18.25;;;2.90;99.90;;;;;;5026467;28;20090;-78
2023/12/06 00:32:00;;;;;;;27.60;17.58;;;0.80;99.90;;;;;;5058311;28;20262;-78
2023/12/06 00:34:25;;;;;;;28.45;17.73;;;0.80;99.90;;;;;;5040502;28;20021;-78
2023/12/06 00:36:51;;;;;;;29.30;18.17;;;0.80;99.90;;;;;;5040191;28;21130;-78
2023/12/06 00:39:17;;;;;;;26.90;17.55;;;2.60;99.90;;;;;;5007314;28;20017;-78
2023/12/06 00:41:42;;;;;;;30.20;19.48;;;1.30;99.90;;;;;;5058412;28;20013;-78
2023/12/06 00:44:08;;;;;;;27.98;17.80;;;0.80;99.90;;;;;;5042135;28;20207;-78
2023/12/06 00:46:35;;;;;;;29.52;18.40;;;0.90;99.90;;;;;;5041264;28;20020;-78
2023/12/06 00:49:03;;;;;;;25.90;16.17;;;0.90;99.90;;;;;;5057947;28;20035;-79
2023/12/06 00:51:29;;;;;;;29.30;18.00;;;0.80;99.90;;;;;;5033725;28;20048;-78
2023/12/06 00:53:54;;;;;;;31.13;18.58;;;2.00;99.90;;;;;;5035322;28;20289;-78
2023/12/06 00:56:20;;;;;;;29.45;18.45;;;0.80;99.90;;;;;;5041656;28;20013;-78
2023/12/06 00:58:46;;;;;;;30.20;18.92;;;1.70;99.90;;;;;;5054579;28;21740;-78
2023/12/06 01:01:12;;;;;;;27.63;17.38;;;2.10;99.90;;;;;;5034475;28;20044;-78
2023/12/06 01:03:40;;;;;;;29.17;18.15;;;2.50;99.90;;;;;;5042087;28;20024;-78
2023/12/06 01:06:06;;;;;;;29.00;18.33;;;0.90;99.90;;;;;;5058751;28;20084;-78
2023/12/06 01:08:32;;;;;;;28.10;17.80;;;0.90;99.90;;;;;;5024212;28;20527;-78
2023/12/06 01:10:58;;;;;;;29.20;18.77;;;0.90;99.90;;;;;;5057147;28;20079;-78
2023/12/06 01:13:24;;;;;;;29.23;18.25;;;0.90;99.90;;;;;;5024764;28;20021;-78
2023/12/06 01:15:50;;;;;;;28.63;17.63;;;0.90;99.90;;;;;;5017710;28;20036;-78
2023/12/06 01:18:16;;;;;;;29.92;17.83;;;2.90;99.90;;;;;;5046852;28;20152;-78
2023/12/06 01:20:41;;;;;;;28.98;18.00;;;0.90;99.90;;;;;;5061812;28;20036;-78
2023/12/06 01:23:07;;;;;;;28.40;18.85;;;0.90;99.90;;;;;;5076410;28;20070;-79
2023/12/06 01:25:33;;;;;;;26.80;17.67;;;0.90;99.90;;;;;;5060838;28;20036;-79
2023/12/06 01:27:59;;;;;;;31.98;18.40;;;0.90;99.90;;;;;;5059204;28;20031;-78
2023/12/06 01:30:25;;;;;;;29.40;19.17;;;1.00;99.90;;;;;;5060346;28;20103;-77
2023/12/06 01:32:51;;;;;;;29.73;19.00;;;1.00;99.90;;;;;;5061983;28;20066;-78
2023/12/06 01:35:17;;;;;;;30.50;18.88;;;1.00;99.90;;;;;;5062305;28;20031;-78
2023/12/06 01:37:42;;;;;;;29.38;18.83;;;0.90;99.90;;;;;;5083048;28;20055;-78
2023/12/06 01:40:09;;;;;;;29.80;18.10;;;1.00;99.90;;;;;;5064214;28;20056;-78
2023/12/06 01:42:35;;;;;;;30.02;19.10;;;1.00;99.90;;;;;;5081601;28;20044;-78
2023/12/06 01:45:01;;;;;;;27.83;18.45;;;2.70;99.90;;;;;;5048680;28;20262;-78
2023/12/06 01:47:28;;;;;;;30.75;19.48;;;0.90;99.90;;;;;;5065139;28;20020;-79
2023/12/06 01:49:56;;;;;;;29.20;18.95;;;1.80;99.90;;;;;;5116449;28;20043;-78
2023/12/06 01:52:23;;;;;;;30.27;18.55;;;1.00;99.90;;;;;;5079972;28;20034;-78
2023/12/06 01:54:49;;;;;;;27.65;17.55;;;0.90;99.90;;;;;;5065967;28;20032;-78
2023/12/06 01:57:16;;;;;;;29.17;18.77;;;1.00;99.90;;;;;;5048426;28;20174;-78
2023/12/06 01:59:44;;;;;;;29.63;18.13;;;1.00;99.90;;;;;;5093767;28;20037;-78
2023/12/06 02:02:11;;;;;;;29.75;17.77;;;2.70;99.90;;;;;;5064817;28;20051;-78
2023/12/06 02:04:39;;;;;;;31.27;17.75;;;1.00;99.90;;;;;;5082086;28;20024;-78
2023/12/06 02:07:04;;;;;;;27.23;17.45;;;1.20;99.90;;;;;;5065487;28;20024;-78
2023/12/06 02:09:30;;;;;;;31.23;19.02;;;2.80;99.90;;;;;;5080465;28;20092;-78
2023/12/06 02:11:56;;;;;;;29.10;17.65;;;1.00;99.90;;;;;;5042234;28;20031;-78
2023/12/06 02:14:22;;;;;;;29.52;18.08;;;1.90;99.90;;;;;;5064028;28;20017;-78
2023/12/06 02:16:48;;;;;;;29.40;18.48;;;2.30;99.90;;;;;;5064300;28;20289;-78
2023/12/06 02:19:18;;;;;;;29.08;17.52;;;1.10;99.90;;;;;;5081465;28;20091;-78
2023/12/06 02:21:46;;;;;;;28.15;17.55;;;1.10;99.90;;;;;;5079114;28;20024;-78
2023/12/06 02:24:13;;;;;;;30.05;18.67;;;1.00;99.90;;;;;;5064094;28;20105;-78
2023/12/06 02:26:39;;;;;;;26.88;17.42;;;2.80;99.90;;;;;;5063715;28;20174;-78
2023/12/06 02:29:04;;;;;;;28.27;17.75;;;1.00;99.90;;;;;;5081856;28;20028;-78
2023/12/06 02:31:30;;;;;;;28.13;17.25;;;2.60;99.90;;;;;;5080849;28;20017;-78
2023/12/06 02:34:01;;;;;;;26.75;15.93;;;1.50;99.90;;;;;;5026478;28;20055;-78
2023/12/06 02:36:29;;;;;;;25.20;16.42;;;2.00;99.90;;;;;;5080614;28;20051;-79
2023/12/06 02:38:54;;;;;;;25.17;15.25;;;1.00;99.90;;;;;;5079870;28;20028;-78
2023/12/06 02:41:22;;;;;;;23.33;14.90;;;1.20;99.90;;;;;;5045351;28;20036;-79
2023/12/06 02:43:48;;;;;;;22.45;14.73;;;1.00;99.90;;;;;;5064321;28;20060;-78
2023/12/06 02:46:13;;;;;;;23.83;13.82;;;2.10;99.90;;;;;;5047396;28;20146;-79
2023/12/06 02:48:40;;;;;;;22.08;13.35;;;1.50;99.90;;;;;;5063610;28;20020;-79
2023/12/06 02:51:06;;;;;;;22.80;14.15;;;1.00;99.90;;;;;;5064005;28;20266;-78
2023/12/06 02:53:32;;;;;;;19.83;13.00;;;1.10;99.90;;;;;;5064100;28;20036;-78
2023/12/06 02:55:58;;;;;;;20.85;12.65;;;1.10;99.90;;;;;;5062222;28;20129;-78
2023/12/06 02:58:23;;;;;;;19.85;12.82;;;1.10;99.90;;;;;;5079375;28;20074;-78
2023/12/06 03:00:50;;;;;;;17.55;11.38;;;2.90;99.90;;;;;;5078900;28;20027;-78
2023/12/06 03:03:15;;;;;;;19.38;11.35;;;1.10;99.90;;;;;;5064344;28;20009;-78
2023/12/06 03:05:41;;;;;;;18.77;10.88;;;2.00;99.90;;;;;;5022253;28;20292;-78
2023/12/06 03:08:08;;;;;;;17.10;10.38;;;2.00;99.90;;;;;;5047409;28;20250;-78
2023/12/06 03:10:34;;;;;;;17.30;10.45;;;1.20;99.90;;;;;;5062213;28;20159;-78
2023/12/06 03:13:00;;;;;;;15.63;9.77;;;1.10;99.90;;;;;;5057691;28;20078;-78
2023/12/06 03:15:25;;;;;;;17.25;10.60;;;1.20;99.90;;;;;;5046058;28;20217;-78
2023/12/06 03:17:51;;;;;;;16.35;10.02;;;1.10;99.90;;;;;;5064370;28;20056;-78
2023/12/06 03:20:17;;;;;;;14.38;9.02;;;2.50;99.90;;;;;;5067170;28;20266;-78
2023/12/06 03:22:43;;;;;;;16.55;9.82;;;0.90;99.90;;;;;;5066162;28;20055;-78
2023/12/06 03:25:09;;;;;;;16.67;9.60;;;1.10;99.90;;;;;;5066087;28;20031;-78
2023/12/06 03:27:34;;;;;;;15.82;9.20;;;1.10;99.90;;;;;;5066348;28;20022;-78
2023/12/06 03:30:00;;;;;;;14.15;8.50;;;1.20;99.90;;;;;;5067543;28;20032;-78
2023/12/06 03:32:26;;;;;;;15.82;9.55;;;1.20;99.90;;;;;;5065301;28;20080;-79
2023/12/06 03:34:51;;;;;;;15.77;9.27;;;2.90;99.90;;;;;;5070592;28;20020;-78
2023/12/06 03:37:17;;;;;;;15.35;9.45;;;2.30;99.90;;;;;;5052500;28;20043;-78
2023/12/06 03:39:43;;;;;;;15.10;9.02;;;1.20;99.90;;;;;;5098975;28;20020;-78
2023/12/06 03:42:08;;;;;;;16.05;10.15;;;1.10;99.90;;;;;;5066520;28;20091;-79
2023/12/06 03:44:34;;;;;;;15.32;9.45;;;3.10;99.90;;;;;;5049939;28;20016;-78
2023/12/06 03:47:00;;;;;;;15.52;9.10;;;2.60;99.90;;;;;;5050544;28;20092;-78
2023/12/06 03:49:25;;;;;;;15.90;9.43;;;2.40;99.90;;;;;;5069282;28;20020;-78
2023/12/06 03:51:51;;;;;;;14.10;8.73;;;1.20;99.90;;;;;;5048810;28;20034;-78
2023/12/06 03:54:18;;;;;;;15.35;9.43;;;3.20;99.90;;;;;;5063283;28;20265;-78
2023/12/06 03:56:44;;;;;;;16.00;9.00;;;2.80;99.90;;;;;;5066239;28;20028;-78
2023/12/06 03:59:09;;;;;;;14.38;8.98;;;1.20;99.90;;;;;;5065375;28;20197;-78
2023/12/06 04:01:35;;;;;;;14.00;8.63;;;2.70;99.90;;;;;;5083375;28;20024;-79
2023/12/06 04:04:01;;;;;;;15.35;9.18;;;1.20;99.90;;;;;;5064427;28;20024;-78
2023/12/06 04:06:26;;;;;;;14.15;8.48;;;1.20;99.90;;;;;;5050141;28;20031;-78
2023/12/06 04:08:52;;;;;;;15.55;8.60;;;1.50;99.90;;;;;;5064957;28;20012;-78
2023/12/06 04:11:18;;;;;;;14.23;8.68;;;1.20;99.90;;;;;;5065637;28;20032;-78
2023/12/06 04:13:43;;;;;;;18.27;8.82;;;3.00;99.90;;;;;;5062929;28;20241;-79
2023/12/06 04:16:09;;;;;;;14.52;9.05;;;1.40;99.90;;;;;;5064046;28;20267;-78
2023/12/06 04:18:35;;;;;;;14.60;8.43;;;1.30;99.90;;;;;;5081573;28;20039;-79
2023/12/06 04:21:01;;;;;;;12.82;8.20;;;2.30;99.90;;;;;;5065365;28;20036;-78
2023/12/06 04:23:26;;;;;;;14.30;8.75;;;1.30;99.90;;;;;;5078689;28;20009;-78
2023/12/06 04:25:52;;;;;;;13.55;7.80;;;2.10;99.90;;;;;;5046934;28;20285;-78
2023/12/06 04:28:18;;;;;;;13.93;7.82;;;2.20;99.90;;;;;;5065454;28;20088;-78
2023/12/06 04:30:43;;;;;;;13.20;7.82;;;1.30;99.90;;;;;;5032889;28;20012;-79
2023/12/06 04:33:09;;;;;;;13.77;8.10;;;1.30;99.90;;;;;;5080514;28;20281;-78
2023/12/06 04:35:35;;;;;;;12.95;7.82;;;2.20;99.90;;;;;;5063693;28;20272;-79
2023/12/06 04:38:00;;;;;;;13.32;7.75;;;1.60;99.90;;;;;;5081757;28;20934;-79
2023/12/06 04:40:26;;;;;;;13.52;7.43;;;3.40;99.90;;;;;;5049155;28;20054;-79
2023/12/06 04:42:52;;;;;;;13.60;8.18;;;2.10;99.90;;;;;;5046561;28;20032;-78
2023/12/06 04:45:17;;;;;;;13.25;7.95;;;1.40;99.90;;;;;;5064835;28;20036;-79
2023/12/06 04:47:43;;;;;;;13.55;7.93;;;1.40;99.90;;;;;;5048469;28;20039;-78
2023/12/06 04:50:09;;;;;;;13.23;7.65;;;1.40;99.90;;;;;;5044709;28;20126;-78
2023/12/06 04:52:36;;;;;;;13.27;8.05;;;1.40;99.90;;;;;;5064252;28;20024;-78
2023/12/06 04:55:04;;;;;;;13.13;7.53;;;1.40;99.90;;;;;;5080534;28;20130;-79
2023/12/06 04:57:30;;;;;;;12.77;7.50;;;1.40;99.90;;;;;;5065567;28;20024;-79
2023/12/06 04:59:56;;;;;;;13.55;7.78;;;1.40;99.90;;;;;;5046168;28;20023;-79
2023/12/06 05:02:22;;;;;;;13.48;8.25;;;1.50;99.90;;;;;;5065598;28;20031;-79
2023/12/06 05:04:48;;;;;;;13.07;7.75;;;2.50;99.90;;;;;;5098974;28;20015;-78
2023/12/06 05:07:13;;;;;;;13.35;7.45;;;1.90;99.90;;;;;;5063990;28;20271;-79
2023/12/06 05:09:39;;;;;;;14.93;8.00;;;1.40;99.90;;;;;;5065006;28;20023;-79
2023/12/06 05:12:05;;;;;;;13.73;8.18;;;1.50;99.90;;;;;;5065601;28;20100;-79
2023/12/06 05:14:31;;;;;;;12.77;7.60;;;1.50;99.90;;;;;;5065738;28;20103;-79
2023/12/06 05:16:56;;;;;;;13.18;7.75;;;3.20;99.90;;;;;;5033500;28;20141;-79
2023/12/06 05:19:22;;;;;;;13.60;7.72;;;1.50;99.90;;;;;;5064875;28;20036;-78
2023/12/06 05:21:48;;;;;;;14.52;8.13;;;1.50;99.90;;;;;;5064507;28;20280;-79
2023/12/06 05:24:13;;;;;;;13.35;8.15;;;2.80;99.90;;;;;;5048724;28;20020;-79
2023/12/06 05:26:39;;;;;;;13.63;7.88;;;1.50;99.90;;;;;;5047397;28;20023;-79
2023/12/06 05:29:05;;;;;;;14.00;8.10;;;2.90;99.90;;;;;;5028730;28;20020;-78
2023/12/06 05:31:31;;;;;;;13.73;7.60;;;2.30;99.90;;;;;;5063256;28;20012;-78
2023/12/06 05:33:58;;;;;;;14.50;8.73;;;1.50;99.90;;;;;;5079454;28;20024;-78
2023/12/06 05:36:23;;;;;;;14.10;8.05;;;1.50;99.90;;;;;;5065592;28;20384;-78
2023/12/06 05:38:49;;;;;;;12.85;7.65;;;1.90;99.90;;;;;;5062122;28;20016;-79
2023/12/06 05:41:15;;;;;;;13.57;8.05;;;3.40;99.90;;;;;;5043483;28;20036;-78
2023/12/06 05:43:41;;;;;;;13.88;8.07;;;1.50;99.90;;;;;;5051116;28;20051;-78
2023/12/06 05:46:06;;;;;;;14.25;8.80;;;1.50;99.90;;;;;;5045227;28;20103;-78
2023/12/06 05:48:32;;;;;;;14.23;8.27;;;3.50;99.90;;;;;;5045328;28;20725;-78
2023/12/06 05:50:58;;;;;;;12.88;7.93;;;1.50;99.90;;;;;;5064825;28;20531;-79
2023/12/06 05:53:23;;;;;;;14.48;8.02;;;3.20;99.90;;;;;;5048470;28;20027;-78
2023/12/06 05:55:49;;;;;;;12.57;7.75;;;1.60;99.90;;;;;;5048495;28;20114;-79
2023/12/06 05:58:15;;;;;;;12.77;7.78;;;1.60;99.90;;;;;;5064055;28;20300;-78
2023/12/06 06:00:40;;;;;;;17.02;8.48;;;1.90;99.90;;;;;;5045494;28;20012;-78
2023/12/06 06:03:06;;;;;;;12.27;7.43;;;2.00;99.90;;;;;;5065464;28;20085;-78
2023/12/06 06:05:33;;;;;;;15.25;8.45;;;2.20;99.90;;;;;;5082681;28;20016;-78
2023/12/06 06:07:59;;;;;;;15.38;8.20;;;2.10;99.90;;;;;;5045706;28;20020;-78
2023/12/06 06:10:25;;;;;;;14.88;9.05;;;1.60;99.90;;;;;;5066620;28;20031;-78
2023/12/06 06:12:51;;;;;;;14.13;8.45;;;1.70;99.90;;;;;;5065315;28;20020;-78
2023/12/06 06:15:17;;;;;;;14.63;8.60;;;1.70;99.90;;;;;;5048361;28;20083;-78
2023/12/06 06:17:43;;;;;;;13.48;7.88;;;1.70;99.90;;;;;;5049924;28;20020;-78
2023/12/06 06:20:10;;;;;;;14.80;8.43;;;1.70;99.90;;;;;;5048970;28;20048;-78
2023/12/06 06:22:36;;;;;;;13.50;7.60;;;1.70;99.90;;;;;;5051512;28;20087;-79
2023/12/06 06:25:02;;;;;;;15.10;8.52;;;2.40;99.90;;;;;;5088001;28;20035;-78
2023/12/06 06:27:28;;;;;;;14.05;8.02;;;1.70;99.90;;;;;;5086707;28;20031;-78
2023/12/06 06:29:54;;;;;;;13.45;8.30;;;1.80;99.90;;;;;;5055468;28;20157;-78
2023/12/06 06:32:20;;;;;;;15.27;8.13;;;1.70;99.90;;;;;;5055990;28;20262;-78
2023/12/06 06:34:46;;;;;;;13.18;7.85;;;1.80;99.90;;;;;;5039399;28;20212;-78
2023/12/06 06:37:11;;;;;;;14.18;8.57;;;2.40;99.90;;;;;;5054405;28;20068;-78
2023/12/06 06:39:38;;;;;;;13.32;7.95;;;1.80;99.90;;;;;;5054718;28;20016;-78
2023/12/06 06:42:04;;;;;;;14.00;8.45;;;1.80;99.90;;;;;;5071590;28;20028;-78
2023/12/06 06:44:31;;;;;;;13.38;7.03;;;1.80;99.90;;;;;;5048326;28;20016;-78
2023/12/06 06:46:56;;;;;;;12.68;7.30;;;1.80;99.90;;;;;;5055268;28;20031;-78
2023/12/06 06:49:22;;;;;;;15.35;8.55;;;1.80;99.90;;;;;;5072510;28;20129;-78
2023/12/06 06:51:48;;;;;;;14.55;7.93;;;1.90;99.90;;;;;;5098734;28;20318;-78
2023/12/06 06:54:13;;;;;;;13.60;7.72;;;2.90;99.90;;;;;;5056829;28;20084;-78
2023/12/06 06:56:40;;;;;;;13.05;7.82;;;3.60;99.90;;;;;;5053964;28;20086;-78
2023/12/06 06:59:05;;;;;;;13.05;8.23;;;1.90;99.90;;;;;;5069414;28;20050;-78
2023/12/06 07:01:31;;;;;;;14.15;7.53;;;1.90;99.90;;;;;;5086898;28;20288;-78
2023/12/06 07:03:57;;;;;;;14.07;7.80;;;2.80;99.90;;;;;;5085667;28;20091;-79
2023/12/06 07:06:23;;;;;;;15.27;8.00;;;1.90;99.90;;;;;;5082852;28;20019;-78
2023/12/06 07:08:49;;;;;;;13.18;7.25;;;1.90;99.90;;;;;;5069826;28;20348;-77
2023/12/06 07:11:16;;;;;;;14.25;7.40;;;3.70;99.90;;;;;;5084849;28;20029;-78
2023/12/06 07:13:42;;;;;;;11.73;7.07;;;1.90;99.90;;;;;;5084121;28;20085;-78
2023/12/06 07:16:10;;;;;;;12.80;7.22;;;1.90;99.90;;;;;;5051292;28;20040;-78
2023/12/06 07:18:36;;;;;;;12.45;6.82;;;2.00;99.90;;;;;;5036782;28;20106;-78
2023/12/06 07:21:03;;;;;;;13.70;7.95;;;2.00;99.90;;;;;;5042341;28;20028;-78
2023/12/06 07:23:29;;;;;;;12.50;7.57;;;1.90;99.90;;;;;;5027587;28;20025;-78
2023/12/06 07:25:55;;;;;;;12.77;7.68;;;2.00;99.90;;;;;;5027821;28;20020;-78
2023/12/06 07:28:21;;;;;;;13.52;7.78;;;2.00;99.90;;;;;;5061210;28;20052;-78
2023/12/06 07:30:47;;;;;;;12.75;7.10;;;1.90;99.90;;;;;;5043954;28;20037;-78
2023/12/06 07:33:12;;;;;;;14.63;7.03;;;1.90;99.90;;;;;;5026467;28;20581;-80
2023/12/06 07:35:40;;;;;;;11.77;7.25;;;2.00;99.90;;;;;;5043210;28;20021;-80
2023/12/06 07:38:08;;;;;;;12.43;7.00;;;2.60;99.90;;;;;;5012126;28;20057;-80
2023/12/06 07:40:33;;;;;;;12.40;7.35;;;2.00;99.90;;;;;;5030853;28;20025;-80
2023/12/06 07:42:59;;;;;;;12.65;6.90;;;3.40;99.90;;;;;;5043356;28;20021;-80
2023/12/06 07:45:25;;;;;;;12.73;7.55;;;2.40;99.90;;;;;;5031008;28;20167;-80
2023/12/06 07:47:50;;;;;;;11.50;7.38;;;3.50;99.90;;;;;;5062975;28;20045;-80
2023/12/06 07:50:16;;;;;;;12.85;7.70;;;2.00;99.90;;;;;;5044244;28;20127;-80
2023/12/06 07:52:42;;;;;;;14.00;7.70;;;2.10;99.90;;;;;;5038849;28;20044;-80
2023/12/06 07:55:09;;;;;;;11.93;7.05;;;3.10;99.90;;;;;;5031861;28;20293;-80
2023/12/06 07:57:36;;;;;;;12.40;7.25;;;2.00;99.90;;;;;;5028059;28;20044;-80
2023/12/06 08:00:07;;;;;;;13.50;7.70;;;2.00;99.90;;;;;;5044411;28;20020;-80
2023/12/06 08:02:34;;;;;;;12.95;7.65;;;2.00;99.90;;;;;;5042541;28;20036;-80
2023/12/06 08:05:02;;;;;;;13.55;7.68;;;2.70;99.90;;;;;;5061943;28;20274;-80
2023/12/06 08:07:28;;;;;;;12.05;7.28;;;2.00;99.90;;;;;;5023449;28;20031;-80
2023/12/06 08:09:54;;;;;;;12.88;7.72;;;2.00;99.90;;;;;;5045392;28;20326;-80
2023/12/06 08:12:20;;;;;;;12.90;7.57;;;2.20;99.90;;;;;;5029473;28;20052;-80
2023/12/06 08:14:45;;;;;;;12.30;7.20;;;2.10;99.90;;;;;;5026612;28;20032;-80
2023/12/06 08:17:11;;;;;;;13.20;7.50;;;2.10;99.90;;;;;;5059037;28;20159;-80
2023/12/06 08:19:37;;;;;;;14.13;7.97;;;3.80;99.90;;;;;;5044400;28;20043;-80
2023/12/06 08:22:03;;;;;;;13.77;7.70;;;2.10;99.90;;;;;;5045745;28;20036;-80
2023/12/06 08:24:29;;;;;;;13.48;7.80;;;2.10;99.90;;;;;;5062894;28;20024;-80
2023/12/06 08:26:54;;;;;;;12.25;7.20;;;2.20;99.90;;;;;;5079569;28;20025;-80
2023/12/06 08:29:20;;;;;;;13.70;8.20;;;2.20;99.90;;;;;;5041741;28;20025;-80
2023/12/06 08:31:46;;;;;;;13.52;7.82;;;3.30;99.90;;;;;;5044365;28;20175;-80
2023/12/06 08:34:11;;;;;;;13.40;8.40;;;2.70;99.90;;;;;;5081839;28;20039;-80
2023/12/06 08:36:37;;;;;;;13.93;8.00;;;3.80;99.90;;;;;;5044281;28;20044;-80
2023/12/06 08:39:03;;;;;;;13.60;8.23;;;2.70;99.90;;;;;;5043753;28;20017;-80
2023/12/06 08:41:29;;;;;;;13.65;8.57;;;2.90;99.90;;;;;;5063432;28;20213;-80
2023/12/06 08:43:55;;;;;;;14.30;7.93;;;2.30;99.90;;;;;;5060803;28;20175;-80
2023/12/06 08:46:22;;;;;;;14.02;8.15;;;2.30;99.90;;;;;;5062487;28;20091;-80
2023/12/06 08:48:48;;;;;;;12.93;7.57;;;2.30;99.90;;;;;;5063065;28;20230;-80
2023/12/06 08:51:14;;;;;;;12.82;8.45;;;2.30;99.90;;;;;;5062007;28;20025;-80
2023/12/06 08:53:39;;;;;;;13.15;8.38;;;2.40;99.90;;;;;;5077839;28;20083;-80
2023/12/06 08:56:05;;;;;;;13.65;8.63;;;2.80;99.90;;;;;;5062421;28;20025;-80
2023/12/06 08:58:31;;;;;;;16.38;8.30;;;2.40;99.90;;;;;;5078156;28;20027;-81
2023/12/06 09:00:57;;;;;;;12.15;7.38;;;2.40;99.90;;;;;;5059458;28;20024;-80
2023/12/06 09:03:22;;;;;;;12.85;7.95;;;3.80;99.90;;;;;;5059841;28;20025;-80
2023/12/06 09:05:48;;;;;;;12.73;7.95;;;2.50;99.90;;;;;;5076986;28;20036;-80
2023/12/06 09:08:15;;;;;;;15.27;8.30;;;2.90;99.90;;;;;;5038692;28;20048;-80
2023/12/06 09:10:41;;;;;;;12.43;7.70;;;3.70;99.90;;;;;;5076418;28;20235;-80
2023/12/06 09:13:07;;;;;;;14.27;8.15;;;2.50;99.90;;;;;;5063989;28;20039;-80
2023/12/06 09:15:32;;;;;;;14.13;7.93;;;3.30;99.90;;;;;;5077781;28;20095;-80
2023/12/06 09:17:58;;;;;;;14.75;8.10;;;3.00;99.90;;;;;;5059848;28;20048;-80
2023/12/06 09:20:24;;;;;;;12.40;7.53;;;3.10;99.90;;;;;;5042440;28;20060;-80
2023/12/06 09:22:50;;;;;;;13.20;7.93;;;2.50;99.90;;;;;;5044382;28;20024;-80
2023/12/06 09:25:16;;;;;;;12.57;7.82;;;2.50;99.90;;;;;;5059142;28;20009;-80
2023/12/06 09:27:42;;;;;;;13.15;7.40;;;2.50;99.90;;;;;;5063981;28;20018;-80
2023/12/06 09:30:08;;;;;;;12.65;7.53;;;3.70;99.90;;;;;;5059905;28;20129;-80
2023/12/06 09:32:34;;;;;;;12.88;7.22;;;2.50;99.90;;;;;;5077561;28;20047;-80
2023/12/06 09:35:00;;;;;;;12.38;7.10;;;2.50;99.90;;;;;;5061054;28;20024;-80
2023/12/06 09:37:26;;;;;;;11.88;6.68;;;2.50;99.90;;;;;;5042243;28;20079;-80
2023/12/06 09:39:53;;;;;;;12.23;6.72;;;2.50;99.90;;;;;;5061554;28;20024;-80
2023/12/06 09:42:19;;;;;;;13.13;7.47;;;2.50;99.90;;;;;;5044667;28;20020;-81
2023/12/06 09:44:45;;;;;;;12.02;6.95;;;2.60;99.90;;;;;;5048713;28;20241;-80
2023/12/06 09:47:12;;;;;;;11.65;6.45;;;2.50;99.90;;;;;;5082095;28;20032;-80
2023/12/06 09:49:38;;;;;;;13.63;7.40;;;2.50;99.90;;;;;;5081082;28;20273;-80
2023/12/06 09:52:19;;;;;;;11.43;7.10;;;4.10;99.90;;;;;;5076996;28;20283;-80
2023/12/06 09:54:46;;;;;;;12.52;7.28;;;2.60;99.90;;;;;;5061940;28;20074;-80
2023/12/06 09:57:12;;;;;;;15.45;7.40;;;2.60;99.90;;;;;;5080160;28;20087;-80
2023/12/06 09:59:38;;;;;;;12.88;7.53;;;2.60;99.90;;;;;;5077694;28;20055;-80
2023/12/06 10:02:04;;;;;;;13.38;7.82;;;2.60;99.90;;;;;;5063957;28;20069;-80
2023/12/06 10:04:29;;;;;;;12.23;7.10;;;3.10;99.90;;;;;;5064407;28;20288;-80
2023/12/06 10:06:57;;;;;;;12.18;6.95;;;3.70;99.90;;;;;;5060146;28;20036;-80
2023/12/06 10:09:22;;;;;;;13.02;7.57;;;2.90;99.90;;;;;;5079677;28;20091;-81
2023/12/06 10:11:48;;;;;;;13.70;6.70;;;4.10;99.90;;;;;;5049247;28;20041;-80
2023/12/06 10:14:21;;;;;;;12.85;7.28;;;2.70;99.90;;;;;;5063598;28;20028;-80
2023/12/06 10:16:47;;;;;;;13.15;7.57;;;2.80;99.90;;;;;;5062744;28;20021;-80
2023/12/06 10:19:21;;;;;;;12.05;7.30;;;2.70;99.90;;;;;;5112818;28;20237;-80
2023/12/06 10:21:51;;;;;;;12.38;6.97;;;2.80;99.90;;;;;;5076551;28;20052;-80
2023/12/06 10:24:16;;;;;;;14.50;7.50;;;4.50;99.90;;;;;;5047453;28;20019;-81
2023/12/06 10:26:42;;;;;;;12.43;7.60;;;2.80;99.90;;;;;;5064023;28;20190;-80
2023/12/06 10:29:09;;;;;;;11.30;6.88;;;2.90;99.90;;;;;;5083133;28;20056;-80
2023/12/06 10:31:45;;;;;;;12.88;7.43;;;2.80;99.90;;;;;;5080355;28;20013;-80
2023/12/06 10:34:11;;;;;;;13.43;7.32;;;2.80;99.90;;;;;;5076937;28;20032;-80
2023/12/06 10:36:37;;;;;;;12.10;6.95;;;2.80;99.90;;;;;;5031569;28;20032;-80
2023/12/06 10:39:10;;;;;;;13.38;7.47;;;3.50;99.90;;;;;;5062393;28;20035;-81
2023/12/06 10:41:41;;;;;;;12.20;7.28;;;2.80;99.90;;;;;;5064913;28;20032;-80
2023/12/06 10:44:09;;;;;;;14.27;8.20;;;3.20;99.90;;;;;;5062061;28;20033;-80
2023/12/06 10:46:36;;;;;;;12.23;7.85;;;2.80;99.90;;;;;;5080671;28;20032;-80
2023/12/06 10:49:03;;;;;;;12.35;7.55;;;2.90;99.90;;;;;;5030509;28;20088;-80
2023/12/06 10:51:34;;;;;;;12.23;7.85;;;3.50;99.90;;;;;;5077652;28;20040;-81
2023/12/06 10:54:01;;;;;;;12.55;7.60;;;2.90;99.90;;;;;;5077575;28;20030;-80
2023/12/06 10:56:28;;;;;;;11.98;7.32;;;2.90;99.90;;;;;;5078158;28;20024;-80
2023/12/06 10:58:59;;;;;;;12.70;7.18;;;2.90;99.90;;;;;;5061464;28;20095;-80
2023/12/06 11:01:25;;;;;;;11.73;7.07;;;2.90;99.90;;;;;;5077979;28;20073;-80
2023/12/06 11:03:52;;;;;;;13.77;7.43;;;2.90;99.90;;;;;;5061483;28;20025;-80
2023/12/06 11:06:42;;;;;;;14.27;7.97;;;3.50;99.90;;;;;;5064007;28;20032;-80
2023/12/06 11:09:13;;;;;;;12.68;7.35;;;2.90;99.90;;;;;;5061428;28;20025;-80
2023/12/06 11:12:21;;;;;;;12.32;7.07;;;3.30;99.90;;;;;;5079366;28;20096;-80
2023/12/06 11:15:27;;;;;;;12.73;7.32;;;3.00;99.90;;;;;;5063168;28;20305;-80
2023/12/06 11:18:12;;;;;;;12.30;7.63;;;3.00;99.90;;;;;;5083511;28;20032;-80
2023/12/06 11:20:39;;;;;;;13.02;7.30;;;3.10;99.90;;;;;;5066366;28;20161;-80
2023/12/06 11:23:06;;;;;;;12.73;7.38;;;3.10;99.90;;;;;;5065956;28;20088;-80
2023/12/06 11:25:32;;;;;;;12.70;7.60;;;3.10;99.90;;;;;;5067431;28;20008;-80
2023/12/06 11:27:58;;;;;;;12.98;7.78;;;3.40;99.90;;;;;;5050950;28;20335;-80
2023/12/06 11:30:24;;;;;;;13.02;7.45;;;3.10;99.90;;;;;;5082424;28;20025;-80
2023/12/06 11:32:59;;;;;;;11.48;7.18;;;3.60;99.90;;;;;;5048958;28;20039;-80
2023/12/06 11:35:25;;;;;;;13.18;7.40;;;3.20;99.90;;;;;;5066752;28;20024;-80
2023/12/06 11:37:53;;;;;;;11.50;7.13;;;3.70;99.90;;;;;;5081793;28;20088;-80
2023/12/06 11:40:22;;;;;;;12.35;7.30;;;3.20;99.90;;;;;;5077570;28;20031;-80
2023/12/06 11:43:05;;;;;;;11.93;7.40;;;3.30;99.90;;;;;;5066259;28;20281;-80
2023/12/06 11:45:38;;;;;;;11.60;6.88;;;3.20;99.90;;;;;;5077766;28;20031;-80
2023/12/06 11:48:05;;;;;;;12.68;6.93;;;3.30;99.90;;;;;;5078556;28;20321;-80
2023/12/06 11:50:47;;;;;;;14.80;6.97;;;3.20;99.90;;;;;;5064603;28;20050;-79
2023/12/06 11:53:13;;;;;;;11.52;7.13;;;3.30;99.90;;;;;;5082604;28;20117;-79
2023/12/06 11:55:41;;;;;;;12.40;6.20;;;3.30;99.90;;;;;;5078814;28;20027;-79
2023/12/06 11:58:12;;;;;;;13.10;7.30;;;3.90;99.90;;;;;;5050089;28;20032;-80
2023/12/06 12:00:44;;;;;;;11.18;6.18;;;3.30;99.90;;;;;;5085568;28;20116;-80
2023/12/06 12:03:11;;;;;;;11.57;6.53;;;3.30;99.90;;;;;;5047634;28;20028;-80
2023/12/06 12:05:38;;;;;;;10.70;6.03;;;3.30;99.90;;;;;;5070336;28;20008;-80
2023/12/06 12:08:04;;;;;;;11.32;6.03;;;3.30;99.90;;;;;;5084699;28;20035;-79
2023/12/06 12:10:31;;;;;;;10.52;5.75;;;3.40;99.90;;;;;;5081919;28;20028;-80
2023/12/06 12:12:57;;;;;;;11.68;6.15;;;3.30;99.90;;;;;;5066927;28;20016;-80
2023/12/06 12:15:25;;;;;;;10.95;6.00;;;3.30;99.90;;;;;;5051590;28;20051;-80
2023/12/06 12:17:51;;;;;;;10.68;6.20;;;3.30;99.90;;;;;;5048536;28;20205;-80
2023/12/06 12:20:18;;;;;;;10.68;5.93;;;3.30;99.90;;;;;;5082871;28;20058;-80
2023/12/06 12:22:52;;;;;;;11.60;5.88;;;3.30;99.90;;;;;;5058458;28;20034;-80
2023/12/06 12:25:19;;;;;;;11.23;6.18;;;3.40;99.90;;;;;;5083754;28;20266;-80
2023/12/06 12:27:46;;;;;;;11.75;6.15;;;3.40;99.90;;;;;;5086704;28;21184;-80
2023/12/06 12:30:13;;;;;;;10.70;6.07;;;3.40;99.90;;;;;;5085512;28;20012;-80
2023/12/06 12:32:48;;;;;;;10.60;5.78;;;3.40;99.90;;;;;;5081524;28;20134;-80
2023/12/06 12:35:15;;;;;;;11.02;6.13;;;3.40;99.90;;;;;;5064522;28;20035;-80
2023/12/06 12:37:43;;;;;;;9.75;5.32;;;3.40;99.90;;;;;;5046340;28;20040;-80
2023/12/06 12:40:09;;;;;;;10.82;5.95;;;3.30;99.90;;;;;;5082098;28;20281;-80